sensor_id;sensor_type;location;lat;lon;timestamp;pressure;altitude;pressure_sealevel;temperature;humidity
2563;BME280;1291;51.420;6.970;2023-02-16T00:01:33;100836.47;;;34.37;9.19
2563;BME280;1291;51.420;6.970;2023-02-16T00:03:59;100844.28;;;35.57;8.31
2563;BME280;1291;51.420;6.970;2023-02-16T00:06:25;100833.63;;;38.23;6.65
2563;BME280;1291;51.420;6.970;2023-02-16T00:08:52;100828.38;;;36.59;7.39
2563;BME280;1291;51.420;6.970;2023-02-16T00:11:22;100835.19;;;35.02;8.80
2563;BME280;1291;51.420;6.970;2023-02-16T00:14:09;100824.78;;;36.20;7.74
2563;BME280;1291;51.420;6.970;2023-02-16T00:16:35;100828.72;;;36.55;7.62
2563;BME280;1291;51.420;6.970;2023-02-16T00:19:01;100824.69;;;34.97;8.07
2563;BME280;1291;51.420;6.970;2023-02-16T00:21:29;100827.19;;;35.98;7.78
2563;BME280;1291;51.420;6.970;2023-02-16T00:23:58;100828.59;;;36.43;7.63
2563;BME280;1291;51.420;6.970;2023-02-16T00:26:24;100819.06;;;36.38;7.29
2563;BME280;1291;51.420;6.970;2023-02-16T00:28:54;100815.09;;;34.63;8.88
2563;BME280;1291;51.420;6.970;2023-02-16T00:31:23;100817.06;;;35.04;8.08
2563;BME280;1291;51.420;6.970;2023-02-16T00:33:51;100817.00;;;37.18;7.34
2563;BME280;1291;51.420;6.970;2023-02-16T00:36:16;100810.53;;;35.91;7.88
2563;BME280;1291;51.420;6.970;2023-02-16T00:38:42;100820.63;;;36.93;7.31
2563;BME280;1291;51.420;6.970;2023-02-16T00:41:20;100812.66;;;33.52;9.21
2563;BME280;1291;51.420;6.970;2023-02-16T00:44:17;100803.25;;;34.37;9.04
2563;BME280;1291;51.420;6.970;2023-02-16T00:46:44;100804.69;;;36.63;7.55
2563;BME280;1291;51.420;6.970;2023-02-16T00:49:18;100805.19;;;37.32;7.19
2563;BME280;1291;51.420;6.970;2023-02-16T00:51:44;100806.97;;;34.04;8.59
2563;BME280;1291;51.420;6.970;2023-02-16T00:54:09;100796.69;;;35.41;7.66
2563;BME280;1291;51.420;6.970;2023-02-16T00:56:35;100802.78;;;36.12;8.00
2563;BME280;1291;51.420;6.970;2023-02-16T00:59:02;100807.75;;;36.84;7.32
2563;BME280;1291;51.420;6.970;2023-02-16T01:01:31;100804.06;;;33.61;9.16
2563;BME280;1291;51.420;6.970;2023-02-16T01:04:00;100799.22;;;34.58;8.94
2563;BME280;1291;51.420;6.970;2023-02-16T01:06:26;100796.94;;;34.95;8.40
2563;BME280;1291;51.420;6.970;2023-02-16T01:09:13;100781.25;;;34.88;8.24
2563;BME280;1291;51.420;6.970;2023-02-16T01:11:58;100789.75;;;35.37;7.99
2563;BME280;1291;51.420;6.970;2023-02-16T01:14:24;100801.22;;;32.83;9.28
2563;BME280;1291;51.420;6.970;2023-02-16T01:16:49;100800.09;;;35.72;8.00
2563;BME280;1291;51.420;6.970;2023-02-16T01:19:15;100801.06;;;36.64;7.38
2563;BME280;1291;51.420;6.970;2023-02-16T01:21:40;100797.88;;;36.45;7.46
2563;BME280;1291;51.420;6.970;2023-02-16T01:24:06;100805.28;;;36.15;7.58
2563;BME280;1291;51.420;6.970;2023-02-16T01:26:40;100798.34;;;38.12;6.32
2563;BME280;1291;51.420;6.970;2023-02-16T01:29:06;100795.06;;;36.97;6.77
2563;BME280;1291;51.420;6.970;2023-02-16T01:31:37;100796.38;;;34.01;9.21
2563;BME280;1291;51.420;6.970;2023-02-16T01:34:02;100789.63;;;37.23;6.90
2563;BME280;1291;51.420;6.970;2023-02-16T01:36:33;100791.66;;;34.94;8.70
2563;BME280;1291;51.420;6.970;2023-02-16T01:38:59;100796.28;;;37.67;6.69
2563;BME280;1291;51.420;6.970;2023-02-16T01:42:02;100799.97;;;34.46;8.92
2563;BME280;1291;51.420;6.970;2023-02-16T01:44:38;100794.34;;;36.04;7.97
2563;BME280;1291;51.420;6.970;2023-02-16T01:47:34;100792.72;;;36.80;6.95
2563;BME280;1291;51.420;6.970;2023-02-16T01:50:25;100787.38;;;34.61;8.25
2563;BME280;1291;51.420;6.970;2023-02-16T01:55:38;100783.22;;;34.26;8.50
2563;BME280;1291;51.420;6.970;2023-02-16T02:03:22;100774.25;;;35.54;7.62
2563;BME280;1291;51.420;6.970;2023-02-16T02:06:14;100788.06;;;34.79;8.38
2563;BME280;1291;51.420;6.970;2023-02-16T02:11:20;100788.06;;;38.04;6.28
2563;BME280;1291;51.420;6.970;2023-02-16T02:13:56;100785.56;;;34.90;8.06
2563;BME280;1291;51.420;6.970;2023-02-16T02:16:24;100781.44;;;36.48;7.42
2563;BME280;1291;51.420;6.970;2023-02-16T02:18:49;100774.53;;;37.56;6.58
2563;BME280;1291;51.420;6.970;2023-02-16T02:27:12;100775.56;;;36.28;7.48
2563;BME280;1291;51.420;6.970;2023-02-16T02:29:55;100765.69;;;33.41;8.86
2563;BME280;1291;51.420;6.970;2023-02-16T02:37:47;100764.69;;;34.20;8.40
2563;BME280;1291;51.420;6.970;2023-02-16T02:40:21;100774.81;;;33.07;9.29
2563;BME280;1291;51.420;6.970;2023-02-16T02:45:40;100764.53;;;36.44;7.03
2563;BME280;1291;51.420;6.970;2023-02-16T02:48:09;100756.94;;;35.43;7.78
2563;BME280;1291;51.420;6.970;2023-02-16T02:50:53;100752.91;;;34.80;7.86
2563;BME280;1291;51.420;6.970;2023-02-16T02:53:41;100757.63;;;33.09;9.26
2563;BME280;1291;51.420;6.970;2023-02-16T02:56:10;100753.31;;;36.76;6.89
2563;BME280;1291;51.420;6.970;2023-02-16T02:59:00;100745.38;;;33.98;8.55
2563;BME280;1291;51.420;6.970;2023-02-16T03:01:51;100740.53;;;33.42;8.87
2563;BME280;1291;51.420;6.970;2023-02-16T03:04:23;100737.38;;;33.02;9.48
2563;BME280;1291;51.420;6.970;2023-02-16T03:06:51;100734.69;;;36.07;7.13
2563;BME280;1291;51.420;6.970;2023-02-16T03:09:19;100730.91;;;36.22;7.04
2563;BME280;1291;51.420;6.970;2023-02-16T03:11:45;100730.94;;;35.70;7.32
2563;BME280;1291;51.420;6.970;2023-02-16T03:14:38;100733.63;;;36.48;6.92
2563;BME280;1291;51.420;6.970;2023-02-16T03:17:12;100729.22;;;33.04;8.86
2563;BME280;1291;51.420;6.970;2023-02-16T03:19:58;100722.28;;;34.81;8.25
2563;BME280;1291;51.420;6.970;2023-02-16T03:22:46;100719.09;;;34.60;8.38
2563;BME280;1291;51.420;6.970;2023-02-16T03:25:33;100715.16;;;33.46;9.22
2563;BME280;1291;51.420;6.970;2023-02-16T03:28:20;100723.06;;;35.79;7.24
2563;BME280;1291;51.420;6.970;2023-02-16T03:31:05;100724.75;;;32.71;9.64
2563;BME280;1291;51.420;6.970;2023-02-16T03:33:31;100718.84;;;35.06;8.25
2563;BME280;1291;51.420;6.970;2023-02-16T03:35:58;100713.53;;;35.47;7.66
2563;BME280;1291;51.420;6.970;2023-02-16T03:38:23;100710.13;;;35.30;7.33
2563;BME280;1291;51.420;6.970;2023-02-16T03:40:52;100715.56;;;32.91;9.42
2563;BME280;1291;51.420;6.970;2023-02-16T03:43:26;100713.88;;;34.57;8.34
2563;BME280;1291;51.420;6.970;2023-02-16T03:45:51;100716.75;;;34.40;8.46
2563;BME280;1291;51.420;6.970;2023-02-16T03:48:17;100713.13;;;34.84;8.30
2563;BME280;1291;51.420;6.970;2023-02-16T03:50:42;100713.31;;;35.22;7.83
2563;BME280;1291;51.420;6.970;2023-02-16T03:53:08;100718.22;;;33.40;9.06
2563;BME280;1291;51.420;6.970;2023-02-16T03:55:38;100714.47;;;34.77;8.42
2563;BME280;1291;51.420;6.970;2023-02-16T03:58:05;100727.66;;;33.47;9.26
2563;BME280;1291;51.420;6.970;2023-02-16T04:00:32;100728.91;;;32.61;9.42
2563;BME280;1291;51.420;6.970;2023-02-16T04:02:58;100719.28;;;33.98;8.39
2563;BME280;1291;51.420;6.970;2023-02-16T04:05:23;100723.47;;;36.65;7.22
2563;BME280;1291;51.420;6.970;2023-02-16T04:07:49;100728.38;;;33.19;8.61
2563;BME280;1291;51.420;6.970;2023-02-16T04:10:14;100729.13;;;34.73;8.13
2563;BME280;1291;51.420;6.970;2023-02-16T04:12:40;100726.56;;;33.20;9.17
2563;BME280;1291;51.420;6.970;2023-02-16T04:15:28;100721.78;;;34.75;8.16
2563;BME280;1291;51.420;6.970;2023-02-16T04:17:53;100718.44;;;35.81;7.61
2563;BME280;1291;51.420;6.970;2023-02-16T04:20:24;100711.09;;;36.73;7.02
2563;BME280;1291;51.420;6.970;2023-02-16T04:22:50;100709.75;;;35.76;7.36
2563;BME280;1291;51.420;6.970;2023-02-16T04:25:16;100717.28;;;36.37;7.15
2563;BME280;1291;51.420;6.970;2023-02-16T04:27:43;100710.06;;;36.87;6.67
2563;BME280;1291;51.420;6.970;2023-02-16T04:30:11;100715.75;;;37.21;6.71
2563;BME280;1291;51.420;6.970;2023-02-16T04:32:40;100720.25;;;34.71;7.93
2563;BME280;1291;51.420;6.970;2023-02-16T04:35:05;100728.91;;;35.86;7.38
2563;BME280;1291;51.420;6.970;2023-02-16T04:37:31;100721.31;;;35.51;7.76
2563;BME280;1291;51.420;6.970;2023-02-16T04:39:56;100712.97;;;34.14;8.70
2563;BME280;1291;51.420;6.970;2023-02-16T04:42:22;100711.97;;;34.74;7.75
2563;BME280;1291;51.420;6.970;2023-02-16T04:44:47;100707.28;;;35.04;7.94
2563;BME280;1291;51.420;6.970;2023-02-16T04:47:12;100708.34;;;35.16;7.76
2563;BME280;1291;51.420;6.970;2023-02-16T04:49:38;100714.41;;;33.75;8.78
2563;BME280;1291;51.420;6.970;2023-02-16T04:52:04;100717.84;;;36.68;6.72
2563;BME280;1291;51.420;6.970;2023-02-16T04:54:30;100721.69;;;35.99;7.06
2563;BME280;1291;51.420;6.970;2023-02-16T04:56:56;100726.59;;;33.02;8.99
2563;BME280;1291;51.420;6.970;2023-02-16T04:59:21;100726.47;;;33.83;9.13
2563;BME280;1291;51.420;6.970;2023-02-16T05:01:46;100717.66;;;33.65;8.75
2563;BME280;1291;51.420;6.970;2023-02-16T05:04:13;100718.53;;;35.65;7.42
2563;BME280;1291;51.420;6.970;2023-02-16T05:06:38;100721.41;;;33.63;8.73
2563;BME280;1291;51.420;6.970;2023-02-16T05:09:04;100710.41;;;33.20;8.88
2563;BME280;1291;51.420;6.970;2023-02-16T05:11:30;100716.41;;;34.75;8.15
2563;BME280;1291;51.420;6.970;2023-02-16T05:14:26;100705.97;;;34.40;8.62
2563;BME280;1291;51.420;6.970;2023-02-16T05:17:18;100716.97;;;34.37;8.29
2563;BME280;1291;51.420;6.970;2023-02-16T05:19:46;100727.22;;;35.31;7.59
2563;BME280;1291;51.420;6.970;2023-02-16T05:22:12;100721.50;;;34.06;8.43
2563;BME280;1291;51.420;6.970;2023-02-16T05:24:39;100712.31;;;34.96;7.65
2563;BME280;1291;51.420;6.970;2023-02-16T05:27:07;100716.97;;;33.62;8.82
2563;BME280;1291;51.420;6.970;2023-02-16T05:29:33;100704.84;;;34.58;8.25
2563;BME280;1291;51.420;6.970;2023-02-16T05:31:59;100722.69;;;31.73;9.97
2563;BME280;1291;51.420;6.970;2023-02-16T05:34:24;100708.66;;;34.40;8.12
2563;BME280;1291;51.420;6.970;2023-02-16T05:36:50;100719.56;;;32.17;9.62
2563;BME280;1291;51.420;6.970;2023-02-16T05:39:15;100716.59;;;34.29;8.59
2563;BME280;1291;51.420;6.970;2023-02-16T05:41:47;100722.81;;;33.38;8.67
2563;BME280;1291;51.420;6.970;2023-02-16T05:44:15;100721.16;;;36.07;7.22
2563;BME280;1291;51.420;6.970;2023-02-16T05:46:41;100724.75;;;34.27;8.28
2563;BME280;1291;51.420;6.970;2023-02-16T05:49:07;100722.19;;;34.69;7.99
2563;BME280;1291;51.420;6.970;2023-02-16T05:51:34;100713.94;;;36.20;7.15
2563;BME280;1291;51.420;6.970;2023-02-16T05:53:59;100731.06;;;33.81;8.90
2563;BME280;1291;51.420;6.970;2023-02-16T05:56:25;100721.13;;;35.27;7.81
2563;BME280;1291;51.420;6.970;2023-02-16T05:58:51;100719.41;;;34.11;8.37
2563;BME280;1291;51.420;6.970;2023-02-16T06:01:17;100711.72;;;34.05;8.27
2563;BME280;1291;51.420;6.970;2023-02-16T06:03:49;100714.47;;;34.48;8.51
2563;BME280;1291;51.420;6.970;2023-02-16T06:06:14;100713.72;;;33.25;8.78
2563;BME280;1291;51.420;6.970;2023-02-16T06:08:40;100715.13;;;32.67;8.94
2563;BME280;1291;51.420;6.970;2023-02-16T06:11:08;100714.75;;;30.97;10.54
2563;BME280;1291;51.420;6.970;2023-02-16T06:13:55;100709.00;;;35.87;7.28
2563;BME280;1291;51.420;6.970;2023-02-16T06:16:26;100716.56;;;32.23;9.64
2563;BME280;1291;51.420;6.970;2023-02-16T06:18:55;100706.63;;;32.08;9.54
2563;BME280;1291;51.420;6.970;2023-02-16T06:21:21;100703.69;;;32.79;9.45
2563;BME280;1291;51.420;6.970;2023-02-16T06:23:47;100705.66;;;31.38;10.24
2563;BME280;1291;51.420;6.970;2023-02-16T06:26:13;100701.69;;;33.46;8.67
2563;BME280;1291;51.420;6.970;2023-02-16T06:28:39;100707.53;;;33.39;8.94
2563;BME280;1291;51.420;6.970;2023-02-16T06:31:04;100702.63;;;33.45;8.81
2563;BME280;1291;51.420;6.970;2023-02-16T06:33:29;100718.03;;;31.77;10.00
2563;BME280;1291;51.420;6.970;2023-02-16T06:35:55;100714.25;;;34.22;8.82
2563;BME280;1291;51.420;6.970;2023-02-16T06:38:20;100716.97;;;34.37;8.28
2563;BME280;1291;51.420;6.970;2023-02-16T06:40:45;100715.31;;;32.13;9.76
2563;BME280;1291;51.420;6.970;2023-02-16T06:43:11;100710.34;;;32.56;9.23
2563;BME280;1291;51.420;6.970;2023-02-16T06:45:36;100709.44;;;32.22;9.69
2563;BME280;1291;51.420;6.970;2023-02-16T06:48:01;100706.38;;;34.19;8.46
2563;BME280;1291;51.420;6.970;2023-02-16T06:50:30;100712.81;;;34.31;8.42
2563;BME280;1291;51.420;6.970;2023-02-16T06:52:55;100713.28;;;33.33;9.23
2563;BME280;1291;51.420;6.970;2023-02-16T06:55:20;100699.63;;;34.55;7.94
2563;BME280;1291;51.420;6.970;2023-02-16T06:57:46;100712.94;;;31.89;9.23
2563;BME280;1291;51.420;6.970;2023-02-16T07:00:11;100709.13;;;33.73;8.95
2563;BME280;1291;51.420;6.970;2023-02-16T07:02:38;100710.78;;;32.64;9.39
2563;BME280;1291;51.420;6.970;2023-02-16T07:05:04;100719.06;;;33.09;9.46
2563;BME280;1291;51.420;6.970;2023-02-16T07:07:29;100711.53;;;35.63;7.40
2563;BME280;1291;51.420;6.970;2023-02-16T07:09:55;100722.78;;;32.75;8.98
2563;BME280;1291;51.420;6.970;2023-02-16T07:12:21;100720.97;;;33.85;8.65
2563;BME280;1291;51.420;6.970;2023-02-16T07:14:46;100724.22;;;33.14;8.86
2563;BME280;1291;51.420;6.970;2023-02-16T07:17:12;100714.50;;;33.27;8.80
2563;BME280;1291;51.420;6.970;2023-02-16T07:19:40;100715.84;;;32.86;9.10
2563;BME280;1291;51.420;6.970;2023-02-16T07:22:05;100712.78;;;33.72;8.56
2563;BME280;1291;51.420;6.970;2023-02-16T07:24:31;100713.56;;;32.12;9.80
2563;BME280;1291;51.420;6.970;2023-02-16T07:26:56;100705.84;;;32.57;9.70
2563;BME280;1291;51.420;6.970;2023-02-16T07:29:21;100702.03;;;32.10;9.65
2563;BME280;1291;51.420;6.970;2023-02-16T07:31:47;100698.69;;;32.22;9.88
2563;BME280;1291;51.420;6.970;2023-02-16T07:34:12;100696.41;;;33.45;9.04
2563;BME280;1291;51.420;6.970;2023-02-16T07:36:40;100696.97;;;34.70;7.89
2563;BME280;1291;51.420;6.970;2023-02-16T07:39:05;100692.13;;;32.61;9.43
2563;BME280;1291;51.420;6.970;2023-02-16T07:41:31;100700.66;;;31.49;10.08
2563;BME280;1291;51.420;6.970;2023-02-16T07:43:56;100695.91;;;33.22;9.11
2563;BME280;1291;51.420;6.970;2023-02-16T07:46:21;100697.59;;;34.16;8.36
2563;BME280;1291;51.420;6.970;2023-02-16T07:48:48;100717.25;;;32.78;9.32
2563;BME280;1291;51.420;6.970;2023-02-16T07:51:22;100713.34;;;31.09;10.36
2563;BME280;1291;51.420;6.970;2023-02-16T07:53:48;100715.03;;;34.67;8.25
2563;BME280;1291;51.420;6.970;2023-02-16T07:56:30;100709.56;;;34.55;8.09
2563;BME280;1291;51.420;6.970;2023-02-16T07:59:00;100717.91;;;33.61;8.64
2563;BME280;1291;51.420;6.970;2023-02-16T08:01:27;100724.50;;;36.75;6.82
2563;BME280;1291;51.420;6.970;2023-02-16T08:03:54;100728.16;;;35.84;7.41
2563;BME280;1291;51.420;6.970;2023-02-16T08:06:19;100719.72;;;35.07;7.89
2563;BME280;1291;51.420;6.970;2023-02-16T08:08:48;100723.88;;;33.82;8.49
2563;BME280;1291;51.420;6.970;2023-02-16T08:11:22;100715.59;;;34.87;8.17
2563;BME280;1291;51.420;6.970;2023-02-16T08:13:51;100732.47;;;34.91;8.02
2563;BME280;1291;51.420;6.970;2023-02-16T08:16:21;100727.59;;;35.10;8.02
2563;BME280;1291;51.420;6.970;2023-02-16T08:18:51;100719.25;;;34.57;8.43
2563;BME280;1291;51.420;6.970;2023-02-16T08:21:19;100737.38;;;34.26;8.56
2563;BME280;1291;51.420;6.970;2023-02-16T08:23:59;100734.69;;;34.55;8.17
2563;BME280;1291;51.420;6.970;2023-02-16T08:26:27;100731.13;;;34.98;8.12
2563;BME280;1291;51.420;6.970;2023-02-16T08:28:56;100729.28;;;33.02;9.07
2563;BME280;1291;51.420;6.970;2023-02-16T08:31:25;100733.09;;;35.77;7.96
2563;BME280;1291;51.420;6.970;2023-02-16T08:33:53;100728.34;;;34.56;8.48
2563;BME280;1291;51.420;6.970;2023-02-16T08:36:26;100726.38;;;33.39;9.44
2563;BME280;1291;51.420;6.970;2023-02-16T08:39:00;100727.59;;;34.10;8.44
2563;BME280;1291;51.420;6.970;2023-02-16T08:41:31;100728.31;;;31.86;9.77
2563;BME280;1291;51.420;6.970;2023-02-16T08:43:57;100734.75;;;33.95;9.12
2563;BME280;1291;51.420;6.970;2023-02-16T08:46:26;100734.25;;;34.18;9.15
2563;BME280;1291;51.420;6.970;2023-02-16T08:48:53;100735.88;;;33.60;9.61
2563;BME280;1291;51.420;6.970;2023-02-16T08:51:20;100727.00;;;36.01;7.71
2563;BME280;1291;51.420;6.970;2023-02-16T08:54:58;100729.72;;;36.39;7.69
2563;BME280;1291;51.420;6.970;2023-02-16T08:57:24;100730.16;;;36.46;7.41
2563;BME280;1291;51.420;6.970;2023-02-16T08:59:49;100723.41;;;37.27;6.90
2563;BME280;1291;51.420;6.970;2023-02-16T09:02:35;100739.25;;;36.19;7.70
2563;BME280;1291;51.420;6.970;2023-02-16T09:05:00;100737.72;;;36.28;7.73
2563;BME280;1291;51.420;6.970;2023-02-16T09:07:25;100722.25;;;38.02;6.85
2563;BME280;1291;51.420;6.970;2023-02-16T09:09:50;100735.22;;;33.87;8.83
2563;BME280;1291;51.420;6.970;2023-02-16T09:12:17;100728.44;;;36.19;7.71
2563;BME280;1291;51.420;6.970;2023-02-16T09:14:42;100742.31;;;34.92;8.95
2563;BME280;1291;51.420;6.970;2023-02-16T09:17:07;100730.16;;;37.09;7.19
2563;BME280;1291;51.420;6.970;2023-02-16T09:19:33;100732.69;;;34.14;9.24
2563;BME280;1291;51.420;6.970;2023-02-16T09:21:58;100734.38;;;37.74;6.90
2563;BME280;1291;51.420;6.970;2023-02-16T09:24:23;100737.13;;;38.21;6.89
2563;BME280;1291;51.420;6.970;2023-02-16T09:26:49;100729.72;;;36.78;7.56
2563;BME280;1291;51.420;6.970;2023-02-16T09:29:16;100736.38;;;36.08;8.26
2563;BME280;1291;51.420;6.970;2023-02-16T09:31:42;100730.28;;;33.17;9.79
2563;BME280;1291;51.420;6.970;2023-02-16T09:34:13;100734.03;;;36.03;8.03
2563;BME280;1291;51.420;6.970;2023-02-16T09:36:43;100739.28;;;35.25;8.35
2563;BME280;1291;51.420;6.970;2023-02-16T09:39:09;100735.94;;;35.61;8.06
2563;BME280;1291;51.420;6.970;2023-02-16T09:47:05;100747.91;;;34.74;8.70
2563;BME280;1291;51.420;6.970;2023-02-16T09:49:39;100747.38;;;37.20;7.45
2563;BME280;1291;51.420;6.970;2023-02-16T09:54:41;100766.03;;;36.99;7.76
2563;BME280;1291;51.420;6.970;2023-02-16T09:59:55;100765.81;;;34.75;8.91
2563;BME280;1291;51.420;6.970;2023-02-16T10:02:39;100772.13;;;38.35;7.08
2563;BME280;1291;51.420;6.970;2023-02-16T10:08:00;100778.59;;;37.00;7.52
2563;BME280;1291;51.420;6.970;2023-02-16T10:10:42;100790.28;;;36.24;8.08
2563;BME280;1291;51.420;6.970;2023-02-16T10:13:23;100788.06;;;35.22;8.87
2563;BME280;1291;51.420;6.970;2023-02-16T10:15:51;100784.28;;;34.38;9.22
2563;BME280;1291;51.420;6.970;2023-02-16T10:18:29;100786.84;;;35.82;8.28
2563;BME280;1291;51.420;6.970;2023-02-16T10:21:02;100774.25;;;34.10;9.42
2563;BME280;1291;51.420;6.970;2023-02-16T10:23:50;100770.25;;;34.76;8.99
2563;BME280;1291;51.420;6.970;2023-02-16T10:29:00;100763.03;;;34.77;9.44
2563;BME280;1291;51.420;6.970;2023-02-16T10:34:21;100766.84;;;33.99;9.60
2563;BME280;1291;51.420;6.970;2023-02-16T10:44:57;100781.91;;;37.54;7.59
2563;BME280;1291;51.420;6.970;2023-02-16T10:47:32;100787.97;;;36.05;8.58
2563;BME280;1291;51.420;6.970;2023-02-16T10:50:00;100785.72;;;35.16;8.96
2563;BME280;1291;51.420;6.970;2023-02-16T10:52:28;100781.84;;;35.61;8.74
2563;BME280;1291;51.420;6.970;2023-02-16T10:54:56;100777.63;;;37.01;8.08
2563;BME280;1291;51.420;6.970;2023-02-16T10:57:26;100780.34;;;37.87;7.42
2563;BME280;1291;51.420;6.970;2023-02-16T10:59:58;100776.00;;;36.22;8.64
2563;BME280;1291;51.420;6.970;2023-02-16T11:02:27;100765.94;;;39.89;6.73
2563;BME280;1291;51.420;6.970;2023-02-16T11:04:57;100772.22;;;38.22;7.78
2563;BME280;1291;51.420;6.970;2023-02-16T11:07:25;100769.53;;;39.79;6.19
2563;BME280;1291;51.420;6.970;2023-02-16T11:09:53;100768.97;;;38.97;6.87
2563;BME280;1291;51.420;6.970;2023-02-16T11:12:37;100768.44;;;39.26;6.98
2563;BME280;1291;51.420;6.970;2023-02-16T11:15:07;100764.28;;;38.77;7.24
2563;BME280;1291;51.420;6.970;2023-02-16T11:17:53;100772.84;;;35.21;9.49
2563;BME280;1291;51.420;6.970;2023-02-16T11:20:29;100757.41;;;39.39;7.30
2563;BME280;1291;51.420;6.970;2023-02-16T11:25:38;100742.84;;;38.74;7.55
2563;BME280;1291;51.420;6.970;2023-02-16T11:28:03;100749.91;;;36.08;8.86
2563;BME280;1291;51.420;6.970;2023-02-16T11:30:36;100747.00;;;39.01;7.70
2563;BME280;1291;51.420;6.970;2023-02-16T11:33:05;100735.72;;;36.94;8.90
2563;BME280;1291;51.420;6.970;2023-02-16T11:35:43;100739.09;;;38.41;7.61
2563;BME280;1291;51.420;6.970;2023-02-16T11:40:52;100727.25;;;34.30;10.53
2563;BME280;1291;51.420;6.970;2023-02-16T11:43:18;100721.84;;;35.71;10.04
2563;BME280;1291;51.420;6.970;2023-02-16T11:46:03;100718.19;;;35.72;9.97
2563;BME280;1291;51.420;6.970;2023-02-16T11:48:31;100726.22;;;35.86;9.71
2563;BME280;1291;51.420;6.970;2023-02-16T11:51:02;100727.47;;;36.72;9.26
2563;BME280;1291;51.420;6.970;2023-02-16T11:53:31;100728.75;;;37.16;9.38
2563;BME280;1291;51.420;6.970;2023-02-16T11:56:25;100733.13;;;37.54;8.88
2563;BME280;1291;51.420;6.970;2023-02-16T11:59:05;100732.03;;;37.81;8.60
2563;BME280;1291;51.420;6.970;2023-02-16T12:15:38;100695.75;;;38.06;8.98
2563;BME280;1291;51.420;6.970;2023-02-16T12:18:32;100699.13;;;37.50;9.39
2563;BME280;1291;51.420;6.970;2023-02-16T12:21:15;100698.38;;;39.09;8.31
2563;BME280;1291;51.420;6.970;2023-02-16T12:23:54;100704.72;;;38.53;8.84
2563;BME280;1291;51.420;6.970;2023-02-16T12:26:31;100701.22;;;37.22;9.46
2563;BME280;1291;51.420;6.970;2023-02-16T12:34:36;100710.41;;;35.93;10.58
2563;BME280;1291;51.420;6.970;2023-02-16T12:43:00;100690.38;;;34.45;11.65
2563;BME280;1291;51.420;6.970;2023-02-16T12:45:31;100690.38;;;39.28;8.22
2563;BME280;1291;51.420;6.970;2023-02-16T12:48:47;100695.31;;;36.03;10.20
2563;BME280;1291;51.420;6.970;2023-02-16T12:50:49;100695.00;;;39.16;8.57
2563;BME280;1291;51.420;6.970;2023-02-16T12:56:27;100692.91;;;35.86;10.27
2563;BME280;1291;51.420;6.970;2023-02-16T12:59:16;100694.19;;;37.19;9.55
2563;BME280;1291;51.420;6.970;2023-02-16T13:01:45;100702.50;;;37.89;9.41
2563;BME280;1291;51.420;6.970;2023-02-16T13:07:29;100699.47;;;40.65;7.23
2563;BME280;1291;51.420;6.970;2023-02-16T13:10:01;100688.00;;;39.03;8.50
2563;BME280;1291;51.420;6.970;2023-02-16T13:12:48;100679.44;;;41.26;7.13
2563;BME280;1291;51.420;6.970;2023-02-16T13:15:41;100672.56;;;41.22;7.09
2563;BME280;1291;51.420;6.970;2023-02-16T13:18:23;100669.38;;;37.26;9.60
2563;BME280;1291;51.420;6.970;2023-02-16T13:20:55;100672.19;;;37.24;9.81
2563;BME280;1291;51.420;6.970;2023-02-16T13:31:42;100654.34;;;39.59;7.88
2563;BME280;1291;51.420;6.970;2023-02-16T13:39:59;100655.41;;;42.07;6.50
2563;BME280;1291;51.420;6.970;2023-02-16T13:45:19;100641.69;;;41.11;7.18
2563;BME280;1291;51.420;6.970;2023-02-16T13:47:45;100637.22;;;41.10;7.30
2563;BME280;1291;51.420;6.970;2023-02-16T13:52:46;100636.22;;;41.89;6.61
2563;BME280;1291;51.420;6.970;2023-02-16T13:55:33;100634.25;;;39.71;8.15
2563;BME280;1291;51.420;6.970;2023-02-16T13:58:05;100626.50;;;41.09;7.15
2563;BME280;1291;51.420;6.970;2023-02-16T14:05:46;100614.88;;;40.06;7.78
2563;BME280;1291;51.420;6.970;2023-02-16T14:08:21;100613.16;;;42.12;6.68
2563;BME280;1291;51.420;6.970;2023-02-16T14:13:16;100621.22;;;41.37;7.19
2563;BME280;1291;51.420;6.970;2023-02-16T14:15:52;100619.66;;;42.66;6.17
2563;BME280;1291;51.420;6.970;2023-02-16T14:21:40;100620.03;;;42.53;6.49
2563;BME280;1291;51.420;6.970;2023-02-16T14:24:23;100605.09;;;40.75;7.70
2563;BME280;1291;51.420;6.970;2023-02-16T14:26:57;100604.56;;;42.90;6.04
2563;BME280;1291;51.420;6.970;2023-02-16T14:29:55;100597.81;;;39.20;8.56
2563;BME280;1291;51.420;6.970;2023-02-16T14:32:26;100579.44;;;41.36;7.34
2563;BME280;1291;51.420;6.970;2023-02-16T14:35:36;100573.75;;;39.48;8.48
2563;BME280;1291;51.420;6.970;2023-02-16T14:38:02;100569.66;;;37.89;9.36
2563;BME280;1291;51.420;6.970;2023-02-16T14:43:57;100579.56;;;41.74;7.09
2563;BME280;1291;51.420;6.970;2023-02-16T14:58:27;100573.22;;;40.37;8.00
2563;BME280;1291;51.420;6.970;2023-02-16T15:01:04;100563.97;;;40.28;7.93
2563;BME280;1291;51.420;6.970;2023-02-16T15:03:50;100561.88;;;39.70;7.87
2563;BME280;1291;51.420;6.970;2023-02-16T15:06:28;100550.34;;;40.18;8.09
2563;BME280;1291;51.420;6.970;2023-02-16T15:09:10;100554.63;;;41.49;7.27
2563;BME280;1291;51.420;6.970;2023-02-16T15:11:41;100546.78;;;41.07;7.32
2563;BME280;1291;51.420;6.970;2023-02-16T15:14:27;100533.59;;;42.62;6.67
2563;BME280;1291;51.420;6.970;2023-02-16T15:16:56;100532.31;;;38.26;9.26
2563;BME280;1291;51.420;6.970;2023-02-16T15:19:27;100546.16;;;38.78;9.03
2563;BME280;1291;51.420;6.970;2023-02-16T15:22:16;100535.56;;;40.71;8.15
2563;BME280;1291;51.420;6.970;2023-02-16T15:24:42;100524.38;;;40.45;8.29
2563;BME280;1291;51.420;6.970;2023-02-16T15:27:19;100527.19;;;37.89;10.37
2563;BME280;1291;51.420;6.970;2023-02-16T15:29:45;100532.56;;;39.31;9.19
2563;BME280;1291;51.420;6.970;2023-02-16T15:32:14;100535.63;;;38.64;9.40
2563;BME280;1291;51.420;6.970;2023-02-16T15:34:49;100532.81;;;38.20;9.83
2563;BME280;1291;51.420;6.970;2023-02-16T15:37:23;100547.09;;;38.88;9.65
2563;BME280;1291;51.420;6.970;2023-02-16T15:39:53;100552.72;;;39.50;9.16
2563;BME280;1291;51.420;6.970;2023-02-16T15:42:25;100535.31;;;38.78;9.27
2563;BME280;1291;51.420;6.970;2023-02-16T15:44:52;100532.56;;;41.42;7.89
2563;BME280;1291;51.420;6.970;2023-02-16T15:47:22;100534.44;;;40.54;8.02
2563;BME280;1291;51.420;6.970;2023-02-16T15:49:49;100538.38;;;38.18;10.08
2563;BME280;1291;51.420;6.970;2023-02-16T15:52:17;100536.41;;;39.71;9.01
2563;BME280;1291;51.420;6.970;2023-02-16T15:54:44;100529.00;;;42.80;6.97
2563;BME280;1291;51.420;6.970;2023-02-16T15:57:13;100527.25;;;38.44;9.78
2563;BME280;1291;51.420;6.970;2023-02-16T15:59:45;100520.25;;;40.50;8.62